Time;durP1;ratioP1;P1;durP2;ratioP2;P2;SDS_P1;SDS_P2;PMS_P1;PMS_P2;Temp;Humidity;BMP_temperature;BMP_pressure;BME280_temperature;BME280_humidity;BME280_pressure;Samples;Min_cycle;Max_cycle;Signal;HPM_P1;HPM_P2
2023/12/20 00:00:37;;;;;;;1.80;1.50;;;11.80;59.10;;;;;;4998982;28;20421;-59
2023/12/20 00:03:03;;;;;;;1.53;1.43;;;11.80;58.40;;;;;;4997304;28;20190;-62
2023/12/20 00:05:28;;;;;;;1.87;1.77;;;11.80;58.50;;;;;;4999140;28;20453;-61
2023/12/20 00:07:54;;;;;;;1.97;1.40;;;11.80;58.80;;;;;;4996933;28;20225;-59
2023/12/20 00:10:20;;;;;;;1.43;1.30;;;11.90;58.90;;;;;;4999564;28;20654;-57
2023/12/20 00:12:45;;;;;;;1.93;1.77;;;11.60;59.40;;;;;;4997556;28;20642;-59
2023/12/20 00:15:11;;;;;;;1.30;1.20;;;11.70;60.00;;;;;;4996634;28;20697;-59
2023/12/20 00:17:36;;;;;;;1.70;1.60;;;11.80;59.70;;;;;;4998018;28;20610;-60
2023/12/20 00:20:02;;;;;;;1.60;1.50;;;11.80;59.90;;;;;;4997059;28;20183;-59
2023/12/20 00:22:28;;;;;;;1.53;1.43;;;11.60;60.10;;;;;;4996969;28;20196;-59
2023/12/20 00:24:53;;;;;;;2.00;1.80;;;11.70;60.30;;;;;;4996079;28;20269;-60
2023/12/20 00:27:19;;;;;;;2.07;1.60;;;11.60;60.30;;;;;;4998648;28;20190;-61
2023/12/20 00:29:47;;;;;;;2.03;1.47;;;11.50;60.60;;;;;;4997240;28;20185;-61
2023/12/20 00:32:13;;;;;;;1.50;1.40;;;11.40;61.20;;;;;;4998354;28;20183;-60
2023/12/20 00:35:03;;;;;;;1.27;1.23;;;11.40;61.50;;;;;;4997302;28;20795;-58
2023/12/20 00:37:28;;;;;;;1.60;1.50;;;11.50;61.70;;;;;;4996175;28;20247;-60
2023/12/20 00:39:54;;;;;;;1.40;1.30;;;11.60;61.70;;;;;;5000192;28;20469;-60
2023/12/20 00:42:19;;;;;;;1.50;1.40;;;11.60;61.80;;;;;;5000105;28;20191;-61
2023/12/20 00:44:45;;;;;;;1.47;1.37;;;11.40;62.30;;;;;;4996364;28;20178;-61
2023/12/20 00:47:11;;;;;;;1.47;1.37;;;11.60;62.40;;;;;;4997250;28;20183;-62
2023/12/20 00:49:36;;;;;;;1.40;1.30;;;11.70;62.50;;;;;;4998062;28;20447;-62
2023/12/20 00:52:02;;;;;;;2.17;1.30;;;11.70;62.70;;;;;;4996617;28;20218;-58
2023/12/20 00:54:28;;;;;;;1.20;1.10;;;11.80;63.00;;;;;;4998441;28;20201;-61
2023/12/20 00:56:53;;;;;;;2.53;1.70;;;11.90;63.40;;;;;;4996163;28;20230;-59
2023/12/20 00:59:19;;;;;;;1.27;1.17;;;11.60;63.30;;;;;;4998494;28;20481;-61
2023/12/20 01:01:46;;;;;;;1.30;1.20;;;11.70;63.70;;;;;;4995004;28;20179;-61
2023/12/20 01:04:11;;;;;;;2.73;1.10;;;11.70;63.60;;;;;;4997355;28;20666;-61
2023/12/20 01:06:37;;;;;;;1.63;1.33;;;11.50;64.10;;;;;;4996572;28;20539;-61
2023/12/20 01:09:03;;;;;;;1.17;1.07;;;11.60;64.80;;;;;;4996190;28;20529;-62
2023/12/20 01:11:28;;;;;;;2.00;1.37;;;11.70;65.00;;;;;;4998597;28;20178;-59
2023/12/20 01:13:54;;;;;;;1.93;1.83;;;11.70;65.40;;;;;;4996086;28;20637;-60
2023/12/20 01:16:19;;;;;;;1.43;1.10;;;11.60;65.70;;;;;;4997115;28;20214;-63
2023/12/20 01:18:45;;;;;;;1.20;1.10;;;11.70;66.10;;;;;;4999493;28;20210;-61
2023/12/20 01:21:10;;;;;;;1.50;1.13;;;11.80;65.80;;;;;;4996993;28;20190;-59
2023/12/20 01:23:36;;;;;;;1.37;1.23;;;11.90;65.60;;;;;;4997527;28;20580;-61
2023/12/20 01:26:02;;;;;;;1.37;1.27;;;12.00;65.80;;;;;;4994985;28;20210;-61
2023/12/20 01:28:28;;;;;;;2.57;1.23;;;12.00;65.50;;;;;;4995423;28;20210;-61
2023/12/20 01:30:53;;;;;;;1.50;1.40;;;12.00;65.90;;;;;;4995874;28;20516;-61
2023/12/20 01:33:19;;;;;;;1.50;1.40;;;12.00;66.10;;;;;;4998022;28;20566;-62
2023/12/20 01:35:44;;;;;;;1.50;1.40;;;12.10;65.70;;;;;;4995644;28;20198;-60
2023/12/20 01:38:10;;;;;;;1.47;1.37;;;12.10;65.60;;;;;;4995812;28;20313;-60
2023/12/20 01:40:36;;;;;;;1.80;1.40;;;12.10;66.60;;;;;;5000379;28;20217;-62
2023/12/20 01:43:12;;;;;;;1.43;1.33;;;12.20;65.70;;;;;;4995668;28;20190;-61
2023/12/20 01:45:38;;;;;;;1.57;1.47;;;12.20;65.90;;;;;;4994882;28;20221;-61
2023/12/20 01:48:05;;;;;;;2.97;1.53;;;12.10;66.40;;;;;;4995248;28;20492;-64
2023/12/20 01:50:31;;;;;;;1.70;1.60;;;12.00;66.90;;;;;;4997822;28;20506;-63
2023/12/20 01:52:59;;;;;;;1.50;1.40;;;12.00;67.10;;;;;;4995378;28;20432;-63
2023/12/20 01:55:27;;;;;;;2.03;1.67;;;12.10;67.20;;;;;;4997341;28;20468;-61
2023/12/20 01:57:53;;;;;;;1.60;1.50;;;12.10;66.70;;;;;;4994883;28;20478;-60
2023/12/20 02:00:22;;;;;;;1.80;1.70;;;12.10;66.80;;;;;;5000160;28;20426;-61
2023/12/20 02:02:50;;;;;;;2.20;1.60;;;12.10;67.00;;;;;;4994251;28;20426;-61
2023/12/20 02:05:16;;;;;;;1.87;1.77;;;12.10;67.20;;;;;;4996323;28;20446;-61
2023/12/20 02:07:42;;;;;;;2.00;1.80;;;12.10;67.20;;;;;;4995730;28;20986;-61
2023/12/20 02:10:08;;;;;;;1.80;1.60;;;12.10;67.20;;;;;;4995638;28;20470;-61
2023/12/20 02:12:33;;;;;;;2.03;1.40;;;12.00;67.40;;;;;;4997222;28;20236;-61
2023/12/20 02:14:59;;;;;;;2.10;1.73;;;12.00;67.50;;;;;;4994374;28;20422;-60
2023/12/20 02:17:25;;;;;;;1.20;1.10;;;12.00;67.40;;;;;;5000412;28;20216;-61
2023/12/20 02:19:51;;;;;;;2.97;1.70;;;12.10;67.40;;;;;;4995139;28;20598;-62
2023/12/20 02:22:16;;;;;;;1.70;1.60;;;12.10;67.40;;;;;;4996958;28;20476;-60
2023/12/20 02:24:42;;;;;;;1.50;1.40;;;12.00;68.80;;;;;;4995182;28;20200;-60
2023/12/20 02:27:08;;;;;;;2.10;1.83;;;12.00;68.40;;;;;;4995135;28;20230;-61
2023/12/20 02:29:34;;;;;;;1.90;1.80;;;12.00;68.20;;;;;;4996963;28;20196;-60
2023/12/20 02:32:00;;;;;;;1.63;1.53;;;12.10;68.10;;;;;;4995207;28;20810;-61
2023/12/20 02:34:26;;;;;;;1.50;1.40;;;12.10;67.70;;;;;;4996972;28;20504;-61
2023/12/20 02:36:51;;;;;;;2.17;1.87;;;12.00;68.00;;;;;;4994987;28;20194;-60
2023/12/20 02:39:18;;;;;;;1.90;1.80;;;12.10;68.20;;;;;;5003999;28;20217;-61
2023/12/20 02:41:44;;;;;;;1.53;1.43;;;12.10;68.00;;;;;;4999798;28;20805;-60
2023/12/20 02:44:09;;;;;;;2.20;1.60;;;12.10;67.80;;;;;;4999789;28;20441;-61
2023/12/20 02:46:35;;;;;;;2.10;1.93;;;12.10;67.60;;;;;;4999673;28;20288;-61
2023/12/20 02:49:00;;;;;;;2.47;2.00;;;12.10;67.60;;;;;;4998831;28;20195;-60
2023/12/20 02:51:26;;;;;;;2.00;1.80;;;12.10;67.60;;;;;;5001614;28;20186;-61
2023/12/20 02:53:51;;;;;;;1.70;1.60;;;12.00;67.50;;;;;;4998671;28;20637;-61
2023/12/20 02:56:17;;;;;;;2.20;2.00;;;12.00;67.60;;;;;;5003779;28;20305;-61
2023/12/20 02:58:42;;;;;;;2.00;1.90;;;12.00;67.80;;;;;;4999489;28;20248;-60
2023/12/20 03:01:08;;;;;;;2.30;2.13;;;12.00;67.70;;;;;;4999538;28;20197;-61
2023/12/20 03:03:34;;;;;;;2.20;2.00;;;12.00;67.80;;;;;;5000521;28;20197;-61
2023/12/20 03:06:00;;;;;;;1.90;1.70;;;12.00;68.10;;;;;;4997928;28;20677;-61
2023/12/20 03:08:25;;;;;;;2.93;2.67;;;12.00;68.60;;;;;;5000851;28;20197;-61
2023/12/20 03:10:51;;;;;;;2.37;2.17;;;11.90;68.50;;;;;;4998519;28;20800;-61
2023/12/20 03:13:16;;;;;;;2.30;2.10;;;12.00;68.40;;;;;;5000417;28;20341;-61
2023/12/20 03:15:42;;;;;;;2.60;2.40;;;12.00;68.20;;;;;;4998781;28;20484;-61
2023/12/20 03:18:08;;;;;;;2.90;2.60;;;12.00;68.20;;;;;;5001828;28;20218;-61
2023/12/20 03:20:34;;;;;;;2.33;2.13;;;12.00;68.20;;;;;;5000582;28;20193;-60
2023/12/20 03:23:00;;;;;;;2.53;2.33;;;12.00;68.10;;;;;;4998409;28;20345;-61
2023/12/20 03:25:26;;;;;;;3.60;3.33;;;12.00;68.10;;;;;;5000329;28;20436;-61
2023/12/20 03:27:52;;;;;;;2.43;2.23;;;12.00;68.30;;;;;;4997859;28;20421;-60
2023/12/20 03:30:17;;;;;;;2.80;2.50;;;12.00;68.30;;;;;;5000272;28;20206;-60
2023/12/20 03:32:43;;;;;;;2.50;2.30;;;12.00;68.40;;;;;;4998988;28;20503;-61
2023/12/20 03:35:09;;;;;;;3.17;2.37;;;11.90;69.10;;;;;;4998236;28;20218;-60
2023/12/20 03:37:34;;;;;;;2.17;1.90;;;11.80;69.20;;;;;;4999559;28;20574;-60
2023/12/20 03:40:00;;;;;;;2.47;2.13;;;11.80;69.20;;;;;;5001520;28;20185;-61
2023/12/20 03:42:25;;;;;;;2.47;2.27;;;11.80;69.00;;;;;;5000705;28;20280;-60
2023/12/20 03:44:51;;;;;;;2.00;1.87;;;11.80;68.90;;;;;;4997512;28;20178;-60
2023/12/20 03:47:17;;;;;;;1.80;1.70;;;11.80;68.50;;;;;;4999747;28;20194;-60
2023/12/20 03:49:43;;;;;;;1.53;1.40;;;11.80;68.80;;;;;;4998980;28;20475;-61
2023/12/20 03:52:08;;;;;;;1.93;1.73;;;11.80;69.00;;;;;;4998502;28;20491;-61
2023/12/20 03:54:35;;;;;;;1.60;1.10;;;11.80;68.70;;;;;;4999405;28;20189;-60
2023/12/20 03:57:01;;;;;;;2.50;1.13;;;11.80;68.70;;;;;;4997509;28;20218;-60
2023/12/20 03:59:27;;;;;;;1.50;1.40;;;11.80;68.30;;;;;;5000429;28;21045;-61
2023/12/20 04:01:52;;;;;;;1.10;0.90;;;11.80;68.20;;;;;;4997870;28;20215;-61
2023/12/20 04:04:18;;;;;;;1.03;0.70;;;11.60;68.90;;;;;;4999751;28;20186;-60
2023/12/20 04:06:44;;;;;;;0.90;0.80;;;11.50;68.50;;;;;;4997523;28;20214;-60
2023/12/20 04:09:09;;;;;;;0.70;0.70;;;11.50;68.50;;;;;;4998658;28;20517;-61
2023/12/20 04:11:36;;;;;;;0.80;0.80;;;11.50;68.20;;;;;;4999596;28;20189;-61
2023/12/20 04:14:01;;;;;;;0.60;0.60;;;11.60;68.10;;;;;;4997499;28;20682;-60
2023/12/20 04:16:27;;;;;;;0.60;0.60;;;11.60;67.90;;;;;;4999100;28;20527;-60
2023/12/20 04:18:52;;;;;;;0.53;0.53;;;11.50;67.70;;;;;;5000632;28;20221;-61
2023/12/20 04:21:18;;;;;;;0.70;0.50;;;11.20;68.00;;;;;;4999352;28;20225;-61
2023/12/20 04:23:44;;;;;;;0.60;0.60;;;10.90;68.90;;;;;;4998070;28;20182;-60
2023/12/20 04:26:10;;;;;;;0.60;0.60;;;10.90;69.60;;;;;;4997051;28;20445;-60
2023/12/20 04:28:35;;;;;;;3.50;0.50;;;11.00;69.60;;;;;;4999055;28;20269;-60
2023/12/20 04:31:01;;;;;;;0.60;0.60;;;11.10;69.60;;;;;;4997238;28;20550;-60
2023/12/20 04:33:26;;;;;;;0.53;0.53;;;11.10;69.40;;;;;;4999970;28;20707;-59
2023/12/20 04:35:52;;;;;;;0.60;0.60;;;11.10;69.50;;;;;;4996269;28;20682;-60
2023/12/20 04:38:17;;;;;;;1.37;0.50;;;11.10;69.30;;;;;;4998573;28;20721;-60
2023/12/20 04:40:43;;;;;;;0.60;0.60;;;11.10;69.30;;;;;;5001004;28;20194;-59
2023/12/20 04:43:09;;;;;;;0.63;0.63;;;11.10;69.10;;;;;;4997698;28;20658;-60
2023/12/20 04:45:35;;;;;;;0.77;0.77;;;11.20;69.00;;;;;;4997956;28;20212;-60
2023/12/20 04:48:02;;;;;;;0.80;0.80;;;11.20;68.50;;;;;;4996494;28;20430;-61
2023/12/20 04:50:28;;;;;;;1.43;0.60;;;11.20;68.70;;;;;;4999414;28;20196;-60
2023/12/20 04:52:53;;;;;;;0.70;0.70;;;11.20;68.50;;;;;;4996557;28;21004;-60
2023/12/20 04:55:19;;;;;;;0.70;0.70;;;11.30;68.20;;;;;;4999326;28;20209;-59
2023/12/20 04:57:44;;;;;;;0.67;0.67;;;11.30;68.20;;;;;;5005992;28;20241;-61
2023/12/20 05:00:11;;;;;;;0.90;0.80;;;11.40;67.80;;;;;;5001456;28;20190;-59
2023/12/20 05:02:37;;;;;;;0.63;0.60;;;11.30;68.00;;;;;;4998159;28;20185;-61
2023/12/20 05:05:02;;;;;;;1.17;0.70;;;11.30;68.10;;;;;;4995409;28;20492;-59
2023/12/20 05:07:28;;;;;;;0.60;0.50;;;11.30;68.30;;;;;;4999204;28;20412;-61
2023/12/20 05:09:53;;;;;;;0.50;0.50;;;11.30;67.80;;;;;;4996520;28;20195;-59
2023/12/20 05:12:19;;;;;;;0.90;0.60;;;11.30;67.80;;;;;;4997291;28;20183;-60
2023/12/20 05:14:46;;;;;;;0.97;0.97;;;11.30;67.60;;;;;;4995844;28;20206;-61
2023/12/20 05:17:11;;;;;;;0.70;0.70;;;11.30;68.10;;;;;;5000482;28;20507;-61
2023/12/20 05:19:37;;;;;;;0.50;0.50;;;11.30;68.10;;;;;;4997739;28;20485;-61
2023/12/20 05:22:02;;;;;;;0.60;0.60;;;11.30;67.80;;;;;;4996254;28;20182;-60
2023/12/20 05:24:28;;;;;;;0.80;0.60;;;11.40;67.90;;;;;;4995100;28;20190;-60
2023/12/20 05:26:54;;;;;;;0.90;0.60;;;11.40;67.80;;;;;;4996223;28;20207;-60
2023/12/20 05:29:20;;;;;;;0.90;0.70;;;11.40;67.40;;;;;;4997821;28;20191;-60
2023/12/20 05:31:45;;;;;;;0.60;0.60;;;11.40;67.50;;;;;;4996669;28;20194;-61
2023/12/20 05:34:11;;;;;;;1.23;0.90;;;11.50;67.00;;;;;;4996859;28;20917;-60
2023/12/20 05:36:37;;;;;;;2.03;0.80;;;11.60;66.60;;;;;;4997064;28;20615;-61
2023/12/20 05:39:07;;;;;;;0.93;0.67;;;11.60;66.30;;;;;;4996085;28;20568;-61
2023/12/20 05:41:33;;;;;;;1.23;0.77;;;11.70;66.50;;;;;;4995880;28;20190;-59
2023/12/20 05:43:59;;;;;;;0.70;0.70;;;11.70;66.50;;;;;;4995900;28;20472;-59
2023/12/20 05:46:25;;;;;;;1.20;0.80;;;11.70;66.40;;;;;;4997607;28;20448;-60
2023/12/20 05:48:51;;;;;;;2.13;0.80;;;11.60;66.80;;;;;;4995665;28;20259;-60
2023/12/20 05:51:17;;;;;;;2.87;1.00;;;11.60;66.40;;;;;;4997617;28;20680;-59
2023/12/20 05:53:44;;;;;;;2.40;2.20;;;11.60;67.60;;;;;;4996640;28;20785;-59
2023/12/20 05:56:09;;;;;;;0.80;0.80;;;11.50;67.00;;;;;;4998989;28;20951;-60
2023/12/20 05:58:35;;;;;;;0.80;0.70;;;11.30;67.40;;;;;;4997533;28;20463;-59
2023/12/20 06:01:00;;;;;;;0.60;0.60;;;11.20;68.00;;;;;;4995673;28;20187;-60
2023/12/20 06:03:26;;;;;;;5.13;4.10;;;11.10;69.00;;;;;;4998183;28;20240;-59
2023/12/20 06:05:52;;;;;;;4.10;1.10;;;11.10;69.40;;;;;;4994310;28;20210;-60
2023/12/20 06:08:17;;;;;;;1.23;1.13;;;11.10;69.90;;;;;;4997403;28;20265;-59
2023/12/20 06:10:43;;;;;;;1.00;0.70;;;11.00;69.70;;;;;;4996336;28;20213;-60
2023/12/20 06:13:08;;;;;;;0.90;0.73;;;11.00;70.30;;;;;;4995232;28;20218;-59
2023/12/20 06:15:35;;;;;;;2.60;1.97;;;11.00;70.60;;;;;;4996284;28;20279;-60
2023/12/20 06:18:00;;;;;;;2.27;1.13;;;11.00;70.80;;;;;;4998563;28;20293;-60
2023/12/20 06:20:26;;;;;;;1.00;0.73;;;11.00;70.40;;;;;;4998014;28;20543;-60
2023/12/20 06:22:52;;;;;;;0.60;0.60;;;11.10;70.80;;;;;;4995307;28;20182;-60
2023/12/20 06:25:17;;;;;;;1.00;1.00;;;11.00;70.40;;;;;;4996052;28;20213;-60
2023/12/20 06:27:43;;;;;;;2.30;0.83;;;11.20;70.10;;;;;;4996260;28;20273;-60
2023/12/20 06:30:11;;;;;;;1.37;1.07;;;11.20;69.60;;;;;;4998286;28;20212;-61
2023/12/20 06:32:37;;;;;;;1.10;1.00;;;11.40;69.60;;;;;;4996986;28;20325;-60
2023/12/20 06:35:04;;;;;;;3.57;1.30;;;11.50;69.00;;;;;;4993981;28;20504;-58
2023/12/20 06:37:30;;;;;;;1.20;1.10;;;11.60;68.60;;;;;;4997368;28;20425;-60
2023/12/20 06:39:56;;;;;;;1.87;1.77;;;11.70;68.50;;;;;;4995112;28;20621;-60
2023/12/20 06:42:22;;;;;;;1.00;1.00;;;11.70;68.60;;;;;;4997503;28;20195;-60
2023/12/20 06:44:48;;;;;;;3.20;1.40;;;11.70;68.60;;;;;;4994048;28;20429;-59
2023/12/20 06:47:14;;;;;;;3.33;1.20;;;11.80;68.60;;;;;;4996487;28;20573;-61
2023/12/20 06:49:40;;;;;;;1.40;1.13;;;11.80;68.80;;;;;;4996331;28;20731;-61
2023/12/20 06:52:06;;;;;;;1.77;1.17;;;11.80;68.60;;;;;;4995207;28;20437;-60
2023/12/20 06:54:31;;;;;;;4.30;1.40;;;11.90;68.40;;;;;;4996457;28;20420;-60
2023/12/20 06:56:57;;;;;;;2.60;1.20;;;11.80;68.50;;;;;;4998123;28;20206;-61
2023/12/20 06:59:22;;;;;;;4.90;1.23;;;11.70;68.80;;;;;;4997427;28;20597;-61
2023/12/20 07:01:48;;;;;;;3.17;1.63;;;11.80;68.70;;;;;;4995141;28;20185;-61
2023/12/20 07:04:16;;;;;;;5.80;2.63;;;11.70;69.20;;;;;;4996214;28;20195;-60
2023/12/20 07:06:42;;;;;;;2.37;1.43;;;11.70;69.10;;;;;;4995483;28;20809;-61
2023/12/20 07:09:07;;;;;;;1.73;1.30;;;11.80;69.10;;;;;;4995402;28;20438;-60
2023/12/20 07:11:33;;;;;;;4.20;1.20;;;11.80;69.00;;;;;;4997175;28;20543;-58
2023/12/20 07:13:58;;;;;;;9.33;1.50;;;11.80;69.00;;;;;;4994892;28;20206;-60
2023/12/20 07:16:24;;;;;;;4.87;1.20;;;11.90;69.00;;;;;;4996471;28;20209;-61
2023/12/20 07:18:50;;;;;;;5.23;1.57;;;11.90;68.60;;;;;;4997967;28;20206;-61
2023/12/20 07:21:15;;;;;;;2.37;1.30;;;12.00;68.50;;;;;;4996620;28;20461;-61
2023/12/20 07:23:41;;;;;;;4.00;2.07;;;11.90;68.40;;;;;;4997600;28;20194;-60
2023/12/20 07:26:06;;;;;;;1.70;1.60;;;11.80;69.20;;;;;;4997760;28;20329;-60
2023/12/20 07:28:32;;;;;;;3.53;2.30;;;11.70;69.50;;;;;;5000710;28;20178;-60
2023/12/20 07:30:58;;;;;;;2.00;1.90;;;11.60;69.80;;;;;;4998415;28;20201;-59
2023/12/20 07:33:23;;;;;;;2.50;2.30;;;11.40;70.20;;;;;;5000956;28;20222;-60
2023/12/20 07:35:49;;;;;;;2.97;2.67;;;11.50;70.30;;;;;;4998949;28;20202;-60
2023/12/20 07:38:14;;;;;;;3.20;2.90;;;11.40;70.20;;;;;;4999825;28;20214;-60
2023/12/20 07:40:43;;;;;;;3.53;3.23;;;10.70;72.60;;;;;;4999580;28;20189;-60
2023/12/20 07:43:08;;;;;;;3.70;3.40;;;10.60;74.50;;;;;;4998936;28;20729;-60
2023/12/20 07:45:34;;;;;;;4.80;4.27;;;10.60;74.40;;;;;;5004216;28;20467;-61
2023/12/20 07:48:00;;;;;;;3.53;3.23;;;10.50;75.50;;;;;;4996858;28;20187;-61
2023/12/20 07:50:26;;;;;;;4.20;3.53;;;10.40;75.80;;;;;;5000967;28;20309;-60
2023/12/20 07:52:51;;;;;;;3.10;2.73;;;10.60;75.10;;;;;;4999132;28;20269;-59
2023/12/20 07:55:17;;;;;;;3.70;3.40;;;10.40;75.10;;;;;;4998817;28;20533;-60
2023/12/20 07:57:42;;;;;;;3.33;3.03;;;10.60;74.60;;;;;;5000995;28;20695;-60
2023/12/20 08:00:10;;;;;;;3.17;2.87;;;10.70;73.30;;;;;;4998647;28;20365;-59
2023/12/20 08:02:35;;;;;;;6.03;3.10;;;10.60;73.60;;;;;;5014100;23;20230;-60
2023/12/20 08:05:01;;;;;;;2.43;2.23;;;10.70;72.80;;;;;;5000587;28;20609;-60
2023/12/20 08:07:26;;;;;;;2.40;2.20;;;10.80;72.10;;;;;;4990863;28;20191;-61
2023/12/20 08:09:54;;;;;;;2.70;2.50;;;10.70;71.10;;;;;;4988552;28;20182;-60
2023/12/20 08:12:20;;;;;;;2.93;2.73;;;10.70;70.40;;;;;;4989114;28;20253;-61
2023/12/20 08:14:45;;;;;;;2.73;2.50;;;10.80;70.10;;;;;;4985981;28;20493;-60
2023/12/20 08:17:12;;;;;;;8.27;7.50;;;10.80;69.80;;;;;;4986428;28;20191;-61
2023/12/20 08:19:38;;;;;;;2.90;2.70;;;10.90;69.60;;;;;;4990723;28;20226;-61
2023/12/20 08:22:03;;;;;;;2.43;2.23;;;11.00;68.90;;;;;;4987237;28;20431;-59
2023/12/20 08:24:30;;;;;;;2.87;2.20;;;11.00;68.80;;;;;;4989085;28;20199;-61
2023/12/20 08:26:55;;;;;;;3.13;2.83;;;11.00;68.50;;;;;;4986159;28;20207;-60
2023/12/20 08:29:21;;;;;;;2.83;2.60;;;11.00;68.20;;;;;;4987648;28;21012;-61
2023/12/20 08:31:46;;;;;;;2.83;2.63;;;10.80;67.50;;;;;;4987370;28;20690;-60
2023/12/20 08:34:14;;;;;;;3.20;2.73;;;10.60;68.50;;;;;;4989650;28;20191;-61
2023/12/20 08:36:39;;;;;;;3.40;3.10;;;10.50;68.80;;;;;;4984188;28;20655;-61
2023/12/20 08:39:07;;;;;;;4.43;2.73;;;10.60;67.90;;;;;;4989082;28;20568;-61
2023/12/20 08:41:32;;;;;;;3.30;3.00;;;10.70;67.60;;;;;;4985923;28;20266;-60
2023/12/20 08:43:58;;;;;;;2.70;2.50;;;10.90;67.20;;;;;;4987626;28;21009;-61
2023/12/20 08:46:23;;;;;;;3.10;2.80;;;10.80;66.50;;;;;;4988113;28;20221;-60
2023/12/20 08:48:49;;;;;;;2.73;2.53;;;10.70;65.90;;;;;;4986902;28;20190;-61
2023/12/20 08:51:15;;;;;;;2.60;2.40;;;10.60;66.50;;;;;;4986644;28;20222;-61
2023/12/20 08:53:41;;;;;;;3.93;2.87;;;10.70;66.20;;;;;;4990541;28;20209;-61
2023/12/20 08:56:07;;;;;;;3.07;2.60;;;10.60;65.50;;;;;;4989220;28;20202;-61
2023/12/20 08:58:33;;;;;;;3.10;2.87;;;10.50;66.40;;;;;;4989401;28;20987;-60
2023/12/20 09:00:59;;;;;;;3.30;2.80;;;10.40;66.30;;;;;;4986021;28;20191;-60
2023/12/20 09:03:24;;;;;;;2.50;2.30;;;10.60;66.00;;;;;;4987878;28;20445;-60
2023/12/20 09:05:50;;;;;;;2.90;2.40;;;10.80;65.90;;;;;;4984289;28;20199;-60
2023/12/20 09:08:15;;;;;;;4.83;2.50;;;10.70;65.60;;;;;;4986136;28;20186;-62
2023/12/20 09:10:41;;;;;;;3.13;2.60;;;10.80;65.10;;;;;;4986828;28;20191;-61
2023/12/20 09:13:06;;;;;;;2.67;2.47;;;10.70;65.30;;;;;;4989737;28;20253;-62
2023/12/20 09:15:34;;;;;;;3.10;2.90;;;10.50;65.40;;;;;;4983429;28;20215;-60
2023/12/20 09:17:59;;;;;;;5.30;2.70;;;10.40;65.80;;;;;;4988513;28;20309;-61
2023/12/20 09:20:25;;;;;;;3.53;2.13;;;10.40;65.90;;;;;;4982589;28;20537;-62
2023/12/20 09:22:50;;;;;;;3.33;2.80;;;10.50;65.70;;;;;;4987337;28;20714;-61
2023/12/20 09:25:17;;;;;;;2.50;2.30;;;10.70;65.60;;;;;;4987418;28;20207;-62
2023/12/20 09:27:43;;;;;;;3.30;2.70;;;10.70;64.90;;;;;;4986302;28;20194;-61
2023/12/20 09:30:09;;;;;;;3.13;2.60;;;10.70;65.10;;;;;;4986174;28;20968;-60
2023/12/20 09:32:34;;;;;;;3.17;2.60;;;10.80;64.80;;;;;;4989918;28;20190;-60
2023/12/20 09:35:00;;;;;;;2.80;2.40;;;11.00;64.60;;;;;;4985955;28;20431;-60
2023/12/20 09:37:27;;;;;;;2.57;2.37;;;11.00;63.40;;;;;;4988252;28;20190;-59
2023/12/20 09:39:52;;;;;;;5.87;2.10;;;11.40;63.80;;;;;;4986043;28;20831;-60
2023/12/20 09:42:25;;;;;;;2.00;1.90;;;11.60;61.60;;;;;;4986237;28;20441;-61
2023/12/20 09:44:51;;;;;;;4.20;2.00;;;11.80;60.50;;;;;;4985916;28;20179;-61
2023/12/20 09:47:19;;;;;;;1.87;1.77;;;12.20;60.30;;;;;;4989474;28;20421;-61
2023/12/20 09:49:45;;;;;;;2.23;1.70;;;12.70;58.70;;;;;;4984906;28;20241;-60
2023/12/20 09:52:12;;;;;;;1.90;1.70;;;13.10;57.80;;;;;;4988165;28;20451;-62
2023/12/20 09:54:38;;;;;;;4.00;2.50;;;13.20;56.60;;;;;;4981127;28;20431;-61
2023/12/20 09:57:04;;;;;;;2.60;1.60;;;13.50;55.80;;;;;;4989620;28;20991;-59
2023/12/20 09:59:30;;;;;;;3.30;1.67;;;13.20;54.70;;;;;;4987245;28;20284;-60
2023/12/20 10:01:57;;;;;;;1.80;1.20;;;13.30;54.90;;;;;;4984297;28;20438;-61
2023/12/20 10:04:22;;;;;;;3.47;1.50;;;13.40;54.50;;;;;;4983930;28;20190;-61
2023/12/20 10:06:48;;;;;;;3.20;1.40;;;13.30;53.10;;;;;;4988946;28;20436;-60
2023/12/20 10:09:14;;;;;;;3.93;1.70;;;13.20;53.20;;;;;;4985716;28;20197;-61
2023/12/20 10:11:40;;;;;;;6.07;1.50;;;13.60;53.60;;;;;;4988007;28;20666;-61
2023/12/20 10:14:07;;;;;;;8.23;2.00;;;13.60;51.60;;;;;;4982726;28;20470;-61
2023/12/20 10:16:33;;;;;;;4.10;1.50;;;13.40;51.70;;;;;;4986105;28;20465;-61
2023/12/20 10:19:04;;;;;;;3.13;1.97;;;13.40;51.90;;;;;;4985924;28;20485;-59
2023/12/20 10:21:29;;;;;;;3.23;1.60;;;13.50;52.00;;;;;;4985534;28;20417;-60
2023/12/20 10:23:56;;;;;;;8.33;1.83;;;13.60;51.70;;;;;;4982955;28;20480;-60
2023/12/20 10:26:23;;;;;;;3.47;1.63;;;13.40;50.10;;;;;;5001436;28;20587;-61
2023/12/20 10:28:59;;;;;;;1.63;1.40;;;13.10;50.90;;;;;;4989020;28;20437;-59
2023/12/20 10:31:33;;;;;;;5.60;1.57;;;13.20;51.70;;;;;;4985186;28;20947;-61
2023/12/20 10:34:00;;;;;;;2.40;1.23;;;13.30;51.80;;;;;;4983949;28;20957;-60
2023/12/20 10:36:27;;;;;;;5.87;1.60;;;13.30;51.00;;;;;;4982083;28;20449;-61
2023/12/20 10:38:54;;;;;;;3.20;1.40;;;13.10;50.30;;;;;;4982133;28;20559;-60
2023/12/20 10:41:27;;;;;;;2.80;1.40;;;12.90;50.80;;;;;;4988832;28;20433;-61
2023/12/20 10:43:58;;;;;;;4.93;1.97;;;12.90;50.90;;;;;;4980927;28;20422;-60
2023/12/20 10:46:26;;;;;;;4.77;1.60;;;12.60;50.40;;;;;;4986136;28;20453;-60
2023/12/20 10:48:54;;;;;;;3.17;1.30;;;12.60;50.80;;;;;;4980063;28;21011;-60
2023/12/20 10:51:21;;;;;;;4.53;1.47;;;12.70;50.60;;;;;;4984521;28;20490;-59
2023/12/20 10:53:50;;;;;;;2.50;1.37;;;12.70;50.60;;;;;;4988319;28;20468;-60
2023/12/20 10:56:21;;;;;;;1.80;1.10;;;12.90;50.40;;;;;;4985390;28;20457;-60
2023/12/20 10:58:48;;;;;;;5.53;1.70;;;13.10;50.80;;;;;;4979092;28;20584;-61
2023/12/20 11:01:14;;;;;;;1.77;1.40;;;13.50;50.50;;;;;;4990782;28;20422;-61
2023/12/20 11:03:51;;;;;;;2.87;1.30;;;13.60;49.30;;;;;;4992148;28;20430;-60
2023/12/20 11:06:38;;;;;;;6.07;2.30;;;13.50;49.00;;;;;;4990396;28;20438;-59
2023/12/20 11:09:10;;;;;;;6.93;1.67;;;13.80;49.10;;;;;;4988088;28;20538;-59
2023/12/20 11:11:51;;;;;;;2.60;1.40;;;13.60;47.10;;;;;;4988034;28;20445;-59
2023/12/20 11:14:45;;;;;;;4.00;1.77;;;13.20;47.50;;;;;;4990881;28;20449;-59
2023/12/20 11:17:16;;;;;;;4.77;1.37;;;13.10;48.90;;;;;;4989714;28;20444;-60
2023/12/20 11:19:57;;;;;;;4.57;1.77;;;12.80;49.30;;;;;;4991011;28;20897;-61
2023/12/20 11:22:25;;;;;;;3.80;1.20;;;12.60;50.40;;;;;;4987045;28;20422;-61
2023/12/20 11:24:51;;;;;;;3.97;1.63;;;12.40;51.00;;;;;;4987736;28;20423;-61
2023/12/20 11:27:19;;;;;;;6.07;1.33;;;12.20;50.50;;;;;;4989789;28;20425;-60
2023/12/20 11:29:52;;;;;;;4.50;1.40;;;12.20;51.10;;;;;;4987423;28;20434;-61
2023/12/20 11:32:29;;;;;;;3.80;1.33;;;11.80;51.60;;;;;;4988970;28;20425;-60
2023/12/20 11:34:59;;;;;;;10.60;3.00;;;12.00;51.50;;;;;;4991303;28;20418;-60
2023/12/20 11:37:35;;;;;;;7.87;1.70;;;12.00;51.50;;;;;;4991523;28;20424;-61
2023/12/20 11:40:22;;;;;;;9.73;2.30;;;11.80;51.90;;;;;;4990808;28;20458;-60
2023/12/20 11:42:50;;;;;;;3.40;1.50;;;11.70;52.70;;;;;;4987829;28;20410;-59
2023/12/20 11:45:19;;;;;;;3.60;1.53;;;11.80;52.30;;;;;;4987014;28;20943;-60
2023/12/20 11:47:55;;;;;;;3.17;1.40;;;11.50;52.20;;;;;;4988841;28;20446;-59
2023/12/20 11:50:22;;;;;;;3.67;1.30;;;11.30;53.00;;;;;;4991263;28;20417;-60
2023/12/20 11:52:49;;;;;;;6.93;1.80;;;11.20;52.60;;;;;;4986349;28;20417;-60
2023/12/20 11:55:14;;;;;;;4.53;1.47;;;10.90;53.40;;;;;;4989028;28;20449;-60
2023/12/20 11:57:40;;;;;;;2.77;1.43;;;10.90;54.10;;;;;;4991601;28;20456;-59
2023/12/20 12:00:06;;;;;;;3.70;1.57;;;11.00;54.20;;;;;;4987515;28;20187;-60
2023/12/20 12:02:32;;;;;;;4.97;1.43;;;10.90;53.80;;;;;;4986775;28;20194;-61
2023/12/20 12:04:59;;;;;;;4.13;1.50;;;11.10;54.20;;;;;;4990697;28;20433;-61
2023/12/20 12:07:25;;;;;;;7.77;1.63;;;10.90;53.10;;;;;;4988125;28;20185;-60
2023/12/20 12:09:51;;;;;;;5.17;1.70;;;10.80;53.60;;;;;;5004061;28;20432;-61
2023/12/20 12:12:19;;;;;;;3.83;1.40;;;10.60;53.70;;;;;;4986095;28;20419;-60
2023/12/20 12:14:44;;;;;;;2.20;1.30;;;10.90;53.90;;;;;;4988327;28;20413;-61
2023/12/20 12:17:14;;;;;;;2.83;1.70;;;10.80;53.50;;;;;;4987904;28;20461;-61
2023/12/20 12:19:43;;;;;;;3.23;1.93;;;10.80;53.70;;;;;;4990646;28;20469;-61
2023/12/20 12:22:15;;;;;;;5.37;1.60;;;10.80;53.70;;;;;;4987056;28;20426;-61
2023/12/20 12:24:41;;;;;;;6.10;1.70;;;11.10;53.90;;;;;;4987212;28;20448;-61
2023/12/20 12:27:07;;;;;;;4.53;1.40;;;11.30;53.40;;;;;;4985050;28;20525;-60
2023/12/20 12:29:34;;;;;;;3.20;1.50;;;11.30;52.70;;;;;;4988303;28;20425;-60
2023/12/20 12:32:00;;;;;;;4.17;1.63;;;11.30;52.20;;;;;;4990727;28;20437;-61
2023/12/20 12:34:28;;;;;;;2.90;1.63;;;11.40;52.40;;;;;;4985059;28;20795;-58
2023/12/20 12:36:53;;;;;;;2.30;1.50;;;11.20;51.90;;;;;;4984262;28;20802;-61
2023/12/20 12:39:19;;;;;;;5.83;1.50;;;11.20;52.30;;;;;;4984285;28;20484;-59
2023/12/20 12:41:45;;;;;;;4.17;1.70;;;11.30;52.60;;;;;;4987685;28;20202;-60
2023/12/20 12:44:10;;;;;;;2.90;1.70;;;11.20;52.20;;;;;;4989835;28;20187;-61